sensor_id;sensor_type;location;lat;lon;timestamp;temperature;humidity
7077;DHT22;3579;48.956;9.154;2023-07-29T00:00:57;23.90;57.40
7077;DHT22;3579;48.956;9.154;2023-07-29T00:03:23;23.90;57.40
7077;DHT22;3579;48.956;9.154;2023-07-29T00:05:49;23.90;57.60
7077;DHT22;3579;48.956;9.154;2023-07-29T00:08:15;23.90;57.40
7077;DHT22;3579;48.956;9.154;2023-07-29T00:10:41;23.90;58.00
7077;DHT22;3579;48.956;9.154;2023-07-29T00:13:07;23.90;57.50
7077;DHT22;3579;48.956;9.154;2023-07-29T00:15:34;23.80;57.40
7077;DHT22;3579;48.956;9.154;2023-07-29T00:18:00;23.80;57.40
7077;DHT22;3579;48.956;9.154;2023-07-29T00:20:26;23.80;57.40
7077;DHT22;3579;48.956;9.154;2023-07-29T00:22:52;23.80;57.40
7077;DHT22;3579;48.956;9.154;2023-07-29T00:25:21;23.80;57.50
7077;DHT22;3579;48.956;9.154;2023-07-29T00:27:47;23.80;57.50
7077;DHT22;3579;48.956;9.154;2023-07-29T00:30:13;23.80;57.50
7077;DHT22;3579;48.956;9.154;2023-07-29T00:32:39;23.80;57.50
7077;DHT22;3579;48.956;9.154;2023-07-29T00:35:06;23.80;57.50
7077;DHT22;3579;48.956;9.154;2023-07-29T00:37:32;23.80;57.50
7077;DHT22;3579;48.956;9.154;2023-07-29T00:39:58;23.80;57.50
7077;DHT22;3579;48.956;9.154;2023-07-29T00:42:24;23.80;57.60
7077;DHT22;3579;48.956;9.154;2023-07-29T00:44:50;23.80;57.60
7077;DHT22;3579;48.956;9.154;2023-07-29T00:47:17;23.70;57.50
7077;DHT22;3579;48.956;9.154;2023-07-29T00:49:46;23.80;57.60
7077;DHT22;3579;48.956;9.154;2023-07-29T00:52:12;23.70;57.60
7077;DHT22;3579;48.956;9.154;2023-07-29T00:54:39;23.70;57.60
7077;DHT22;3579;48.956;9.154;2023-07-29T00:57:10;23.70;57.60
7077;DHT22;3579;48.956;9.154;2023-07-29T00:59:37;23.70;57.60
7077;DHT22;3579;48.956;9.154;2023-07-29T01:02:04;23.70;57.60
7077;DHT22;3579;48.956;9.154;2023-07-29T01:04:31;23.70;57.60
7077;DHT22;3579;48.956;9.154;2023-07-29T01:07:22;23.70;57.60
7077;DHT22;3579;48.956;9.154;2023-07-29T01:10:02;23.70;57.60
7077;DHT22;3579;48.956;9.154;2023-07-29T01:15:20;23.70;57.70
7077;DHT22;3579;48.956;9.154;2023-07-29T01:17:55;23.70;57.70
7077;DHT22;3579;48.956;9.154;2023-07-29T01:20:24;23.70;57.70
7077;DHT22;3579;48.956;9.154;2023-07-29T01:22:51;23.70;57.80
7077;DHT22;3579;48.956;9.154;2023-07-29T01:25:17;23.60;57.60
7077;DHT22;3579;48.956;9.154;2023-07-29T01:27:46;23.70;57.80
7077;DHT22;3579;48.956;9.154;2023-07-29T01:30:13;23.60;57.70
7077;DHT22;3579;48.956;9.154;2023-07-29T01:32:56;23.60;57.70
7077;DHT22;3579;48.956;9.154;2023-07-29T01:35:32;23.60;57.70
7077;DHT22;3579;48.956;9.154;2023-07-29T01:38:03;23.60;57.80
7077;DHT22;3579;48.956;9.154;2023-07-29T01:40:31;23.60;57.80
7077;DHT22;3579;48.956;9.154;2023-07-29T01:42:58;23.60;57.80
7077;DHT22;3579;48.956;9.154;2023-07-29T01:45:25;23.60;57.80
7077;DHT22;3579;48.956;9.154;2023-07-29T01:47:53;23.60;57.80
7077;DHT22;3579;48.956;9.154;2023-07-29T01:50:19;23.60;57.80
7077;DHT22;3579;48.956;9.154;2023-07-29T01:52:46;23.60;57.80
7077;DHT22;3579;48.956;9.154;2023-07-29T01:55:12;23.60;57.90
7077;DHT22;3579;48.956;9.154;2023-07-29T01:57:38;23.60;57.90
7077;DHT22;3579;48.956;9.154;2023-07-29T02:00:04;23.60;57.90
7077;DHT22;3579;48.956;9.154;2023-07-29T02:02:31;23.60;57.90
7077;DHT22;3579;48.956;9.154;2023-07-29T02:04:57;23.50;57.80
7077;DHT22;3579;48.956;9.154;2023-07-29T02:07:23;23.60;57.90
7077;DHT22;3579;48.956;9.154;2023-07-29T02:09:49;23.50;57.90
7077;DHT22;3579;48.956;9.154;2023-07-29T02:12:15;23.50;57.90
7077;DHT22;3579;48.956;9.154;2023-07-29T02:14:41;23.50;57.90
7077;DHT22;3579;48.956;9.154;2023-07-29T02:17:07;23.50;57.90
7077;DHT22;3579;48.956;9.154;2023-07-29T02:19:33;23.50;58.00
7077;DHT22;3579;48.956;9.154;2023-07-29T02:22:00;23.50;58.00
7077;DHT22;3579;48.956;9.154;2023-07-29T02:24:26;23.50;58.00
7077;DHT22;3579;48.956;9.154;2023-07-29T02:26:52;23.50;58.00
7077;DHT22;3579;48.956;9.154;2023-07-29T02:29:18;23.50;58.00
7077;DHT22;3579;48.956;9.154;2023-07-29T02:31:44;23.50;58.00
7077;DHT22;3579;48.956;9.154;2023-07-29T02:34:10;23.50;58.00
7077;DHT22;3579;48.956;9.154;2023-07-29T02:36:36;23.50;58.00
7077;DHT22;3579;48.956;9.154;2023-07-29T02:39:02;23.50;58.00
7077;DHT22;3579;48.956;9.154;2023-07-29T02:41:28;23.50;58.10
7077;DHT22;3579;48.956;9.154;2023-07-29T02:43:55;23.50;58.10
7077;DHT22;3579;48.956;9.154;2023-07-29T02:46:21;23.50;58.00
7077;DHT22;3579;48.956;9.154;2023-07-29T02:48:47;23.50;58.10
7077;DHT22;3579;48.956;9.154;2023-07-29T02:51:13;23.50;58.10
7077;DHT22;3579;48.956;9.154;2023-07-29T02:53:39;23.40;58.00
7077;DHT22;3579;48.956;9.154;2023-07-29T02:56:05;23.50;58.10
7077;DHT22;3579;48.956;9.154;2023-07-29T02:58:36;23.40;58.10
7077;DHT22;3579;48.956;9.154;2023-07-29T03:01:03;23.40;58.10
7077;DHT22;3579;48.956;9.154;2023-07-29T03:03:30;23.40;58.10
7077;DHT22;3579;48.956;9.154;2023-07-29T03:08:25;23.40;58.10
7077;DHT22;3579;48.956;9.154;2023-07-29T03:10:51;23.40;58.10
7077;DHT22;3579;48.956;9.154;2023-07-29T03:13:17;23.40;58.10
7077;DHT22;3579;48.956;9.154;2023-07-29T03:15:43;23.40;58.20
7077;DHT22;3579;48.956;9.154;2023-07-29T03:18:09;23.40;58.10
7077;DHT22;3579;48.956;9.154;2023-07-29T03:20:35;23.40;58.20
7077;DHT22;3579;48.956;9.154;2023-07-29T03:23:01;23.40;58.20
7077;DHT22;3579;48.956;9.154;2023-07-29T03:25:28;23.30;58.10
7077;DHT22;3579;48.956;9.154;2023-07-29T03:27:55;23.30;58.10
7077;DHT22;3579;48.956;9.154;2023-07-29T03:30:21;23.30;58.10
7077;DHT22;3579;48.956;9.154;2023-07-29T03:32:48;23.30;58.10
7077;DHT22;3579;48.956;9.154;2023-07-29T03:35:15;23.30;58.20
7077;DHT22;3579;48.956;9.154;2023-07-29T03:37:41;23.30;58.20
7077;DHT22;3579;48.956;9.154;2023-07-29T03:40:08;23.30;58.20
7077;DHT22;3579;48.956;9.154;2023-07-29T03:42:38;23.30;58.20
7077;DHT22;3579;48.956;9.154;2023-07-29T03:45:04;23.30;58.20
7077;DHT22;3579;48.956;9.154;2023-07-29T03:47:31;23.30;58.20
7077;DHT22;3579;48.956;9.154;2023-07-29T03:49:57;23.30;58.30
7077;DHT22;3579;48.956;9.154;2023-07-29T03:52:23;23.30;58.30
7077;DHT22;3579;48.956;9.154;2023-07-29T03:54:49;23.30;58.30
7077;DHT22;3579;48.956;9.154;2023-07-29T03:57:15;23.30;58.30
7077;DHT22;3579;48.956;9.154;2023-07-29T03:59:41;23.30;58.30
7077;DHT22;3579;48.956;9.154;2023-07-29T04:02:07;23.30;58.30
7077;DHT22;3579;48.956;9.154;2023-07-29T04:04:33;23.30;58.30
7077;DHT22;3579;48.956;9.154;2023-07-29T04:06:59;23.30;58.30
7077;DHT22;3579;48.956;9.154;2023-07-29T04:09:25;23.30;58.30
7077;DHT22;3579;48.956;9.154;2023-07-29T04:11:51;23.30;58.30
7077;DHT22;3579;48.956;9.154;2023-07-29T04:14:17;23.30;58.40
7077;DHT22;3579;48.956;9.154;2023-07-29T04:16:43;23.30;58.40
7077;DHT22;3579;48.956;9.154;2023-07-29T04:19:11;23.30;58.30
7077;DHT22;3579;48.956;9.154;2023-07-29T04:21:37;23.30;58.30
7077;DHT22;3579;48.956;9.154;2023-07-29T04:24:03;23.20;58.80
7077;DHT22;3579;48.956;9.154;2023-07-29T04:26:29;23.20;58.30
7077;DHT22;3579;48.956;9.154;2023-07-29T04:28:55;23.30;58.40
7077;DHT22;3579;48.956;9.154;2023-07-29T04:31:21;23.20;58.80
7077;DHT22;3579;48.956;9.154;2023-07-29T04:33:47;23.30;58.40
7077;DHT22;3579;48.956;9.154;2023-07-29T04:36:13;23.20;58.30
7077;DHT22;3579;48.956;9.154;2023-07-29T04:38:39;23.20;58.30
7077;DHT22;3579;48.956;9.154;2023-07-29T04:41:05;23.20;58.30
7077;DHT22;3579;48.956;9.154;2023-07-29T04:43:33;23.20;58.30
7077;DHT22;3579;48.956;9.154;2023-07-29T04:45:59;23.20;58.40
7077;DHT22;3579;48.956;9.154;2023-07-29T04:48:25;23.20;58.40
7077;DHT22;3579;48.956;9.154;2023-07-29T04:50:51;23.20;58.40
7077;DHT22;3579;48.956;9.154;2023-07-29T04:53:17;23.20;58.40
7077;DHT22;3579;48.956;9.154;2023-07-29T04:55:43;23.20;58.40
7077;DHT22;3579;48.956;9.154;2023-07-29T04:58:10;23.20;58.40
7077;DHT22;3579;48.956;9.154;2023-07-29T05:00:36;23.20;58.40
7077;DHT22;3579;48.956;9.154;2023-07-29T05:03:02;23.20;58.40
7077;DHT22;3579;48.956;9.154;2023-07-29T05:05:28;23.20;58.40
7077;DHT22;3579;48.956;9.154;2023-07-29T05:07:54;23.20;58.40
7077;DHT22;3579;48.956;9.154;2023-07-29T05:10:20;23.20;59.00
7077;DHT22;3579;48.956;9.154;2023-07-29T05:12:46;23.20;58.40
7077;DHT22;3579;48.956;9.154;2023-07-29T05:15:12;23.20;58.40
7077;DHT22;3579;48.956;9.154;2023-07-29T05:17:38;23.20;58.40
7077;DHT22;3579;48.956;9.154;2023-07-29T05:20:05;23.20;58.40
7077;DHT22;3579;48.956;9.154;2023-07-29T05:22:31;23.20;58.40
7077;DHT22;3579;48.956;9.154;2023-07-29T05:24:57;23.20;58.40
7077;DHT22;3579;48.956;9.154;2023-07-29T05:27:23;23.20;58.30
7077;DHT22;3579;48.956;9.154;2023-07-29T05:29:49;23.20;58.30
7077;DHT22;3579;48.956;9.154;2023-07-29T05:32:15;23.20;58.30
7077;DHT22;3579;48.956;9.154;2023-07-29T05:34:41;23.30;58.80
7077;DHT22;3579;48.956;9.154;2023-07-29T05:37:07;23.30;58.30
7077;DHT22;3579;48.956;9.154;2023-07-29T05:39:33;23.30;58.30
7077;DHT22;3579;48.956;9.154;2023-07-29T05:41:59;23.30;58.30
7077;DHT22;3579;48.956;9.154;2023-07-29T05:44:28;23.30;58.20
7077;DHT22;3579;48.956;9.154;2023-07-29T05:46:56;23.30;58.20
7077;DHT22;3579;48.956;9.154;2023-07-29T05:49:23;23.30;58.10
7077;DHT22;3579;48.956;9.154;2023-07-29T05:51:49;23.30;58.10
7077;DHT22;3579;48.956;9.154;2023-07-29T05:54:18;23.30;58.10
7077;DHT22;3579;48.956;9.154;2023-07-29T05:56:44;23.30;58.10
7077;DHT22;3579;48.956;9.154;2023-07-29T05:59:10;23.30;58.10
7077;DHT22;3579;48.956;9.154;2023-07-29T06:01:36;23.30;58.10
7077;DHT22;3579;48.956;9.154;2023-07-29T06:04:02;23.30;58.10
7077;DHT22;3579;48.956;9.154;2023-07-29T06:06:28;23.30;58.10
7077;DHT22;3579;48.956;9.154;2023-07-29T06:08:54;23.40;58.10
7077;DHT22;3579;48.956;9.154;2023-07-29T06:11:20;23.50;58.00
7077;DHT22;3579;48.956;9.154;2023-07-29T06:13:47;23.50;57.90
7077;DHT22;3579;48.956;9.154;2023-07-29T06:16:13;23.50;57.80
7077;DHT22;3579;48.956;9.154;2023-07-29T06:18:39;23.50;57.90
7077;DHT22;3579;48.956;9.154;2023-07-29T06:21:06;23.60;57.90
7077;DHT22;3579;48.956;9.154;2023-07-29T06:23:34;23.60;57.70
7077;DHT22;3579;48.956;9.154;2023-07-29T06:26:00;23.60;57.70
7077;DHT22;3579;48.956;9.154;2023-07-29T06:28:26;23.60;57.70
7077;DHT22;3579;48.956;9.154;2023-07-29T06:30:52;23.60;57.80
7077;DHT22;3579;48.956;9.154;2023-07-29T06:33:18;23.60;57.70
7077;DHT22;3579;48.956;9.154;2023-07-29T06:35:44;23.60;57.70
7077;DHT22;3579;48.956;9.154;2023-07-29T06:38:10;23.60;57.70
7077;DHT22;3579;48.956;9.154;2023-07-29T06:40:36;23.60;57.70
7077;DHT22;3579;48.956;9.154;2023-07-29T06:43:03;23.60;57.70
7077;DHT22;3579;48.956;9.154;2023-07-29T06:45:29;23.60;57.70
7077;DHT22;3579;48.956;9.154;2023-07-29T06:47:55;23.60;57.70
7077;DHT22;3579;48.956;9.154;2023-07-29T06:50:21;23.60;57.70
7077;DHT22;3579;48.956;9.154;2023-07-29T06:52:48;23.60;57.70
7077;DHT22;3579;48.956;9.154;2023-07-29T06:55:14;23.60;57.70
7077;DHT22;3579;48.956;9.154;2023-07-29T06:57:40;23.60;57.70
7077;DHT22;3579;48.956;9.154;2023-07-29T07:00:06;23.60;57.70
7077;DHT22;3579;48.956;9.154;2023-07-29T07:02:36;23.60;57.70
7077;DHT22;3579;48.956;9.154;2023-07-29T07:05:02;23.60;57.70
7077;DHT22;3579;48.956;9.154;2023-07-29T07:07:28;23.60;57.60
7077;DHT22;3579;48.956;9.154;2023-07-29T07:09:54;23.60;57.70
7077;DHT22;3579;48.956;9.154;2023-07-29T07:12:20;23.60;57.70
7077;DHT22;3579;48.956;9.154;2023-07-29T07:14:46;23.60;57.70
7077;DHT22;3579;48.956;9.154;2023-07-29T07:17:12;23.60;57.70
7077;DHT22;3579;48.956;9.154;2023-07-29T07:19:38;23.60;57.70
7077;DHT22;3579;48.956;9.154;2023-07-29T07:22:04;23.60;57.70
7077;DHT22;3579;48.956;9.154;2023-07-29T07:24:30;23.60;57.60
7077;DHT22;3579;48.956;9.154;2023-07-29T07:26:56;23.60;57.70
7077;DHT22;3579;48.956;9.154;2023-07-29T07:29:23;23.60;57.70
7077;DHT22;3579;48.956;9.154;2023-07-29T07:31:53;23.60;57.70
7077;DHT22;3579;48.956;9.154;2023-07-29T07:34:20;23.60;57.60
7077;DHT22;3579;48.956;9.154;2023-07-29T07:36:47;23.60;57.60
7077;DHT22;3579;48.956;9.154;2023-07-29T07:39:13;23.60;57.60
7077;DHT22;3579;48.956;9.154;2023-07-29T07:41:41;23.60;57.60
7077;DHT22;3579;48.956;9.154;2023-07-29T07:44:07;23.60;57.60
7077;DHT22;3579;48.956;9.154;2023-07-29T07:46:33;23.60;57.60
7077;DHT22;3579;48.956;9.154;2023-07-29T07:48:59;23.60;57.60
7077;DHT22;3579;48.956;9.154;2023-07-29T07:51:25;23.60;57.60
7077;DHT22;3579;48.956;9.154;2023-07-29T07:53:51;23.60;57.60
7077;DHT22;3579;48.956;9.154;2023-07-29T07:56:17;23.70;57.60
7077;DHT22;3579;48.956;9.154;2023-07-29T07:58:43;23.70;57.60
7077;DHT22;3579;48.956;9.154;2023-07-29T08:01:10;23.70;57.60
7077;DHT22;3579;48.956;9.154;2023-07-29T08:03:37;23.70;57.50
7077;DHT22;3579;48.956;9.154;2023-07-29T08:06:03;23.80;57.60
7077;DHT22;3579;48.956;9.154;2023-07-29T08:08:30;23.90;57.50
7077;DHT22;3579;48.956;9.154;2023-07-29T08:10:59;24.00;57.10
7077;DHT22;3579;48.956;9.154;2023-07-29T08:13:25;24.10;57.00
7077;DHT22;3579;48.956;9.154;2023-07-29T08:15:52;24.20;56.90
7077;DHT22;3579;48.956;9.154;2023-07-29T08:18:19;24.30;56.60
7077;DHT22;3579;48.956;9.154;2023-07-29T08:20:58;24.30;56.80
7077;DHT22;3579;48.956;9.154;2023-07-29T08:23:28;24.40;56.90
7077;DHT22;3579;48.956;9.154;2023-07-29T08:25:56;24.40;56.70
7077;DHT22;3579;48.956;9.154;2023-07-29T08:28:32;24.40;56.60
7077;DHT22;3579;48.956;9.154;2023-07-29T08:30:58;24.50;56.50
7077;DHT22;3579;48.956;9.154;2023-07-29T08:33:25;24.50;56.40
7077;DHT22;3579;48.956;9.154;2023-07-29T08:35:51;24.50;56.60
7077;DHT22;3579;48.956;9.154;2023-07-29T08:38:18;24.40;56.60
7077;DHT22;3579;48.956;9.154;2023-07-29T08:43:31;24.30;56.80
7077;DHT22;3579;48.956;9.154;2023-07-29T08:45:58;24.30;56.80
7077;DHT22;3579;48.956;9.154;2023-07-29T08:48:40;24.40;56.80
7077;DHT22;3579;48.956;9.154;2023-07-29T08:51:10;24.50;56.50
7077;DHT22;3579;48.956;9.154;2023-07-29T08:53:38;24.60;56.40
7077;DHT22;3579;48.956;9.154;2023-07-29T08:56:05;24.60;56.20
7077;DHT22;3579;48.956;9.154;2023-07-29T08:58:31;24.60;56.50
7077;DHT22;3579;48.956;9.154;2023-07-29T09:00:58;24.70;56.30
7077;DHT22;3579;48.956;9.154;2023-07-29T09:03:24;24.70;56.10
7077;DHT22;3579;48.956;9.154;2023-07-29T09:05:51;24.80;56.20
7077;DHT22;3579;48.956;9.154;2023-07-29T09:08:17;24.70;56.30
7077;DHT22;3579;48.956;9.154;2023-07-29T09:10:43;24.80;56.20
7077;DHT22;3579;48.956;9.154;2023-07-29T09:13:10;24.80;56.10
7077;DHT22;3579;48.956;9.154;2023-07-29T09:15:36;24.90;56.20
7077;DHT22;3579;48.956;9.154;2023-07-29T09:18:16;24.90;56.10
7077;DHT22;3579;48.956;9.154;2023-07-29T09:20:42;24.90;56.10
7077;DHT22;3579;48.956;9.154;2023-07-29T09:23:09;24.90;56.10
7077;DHT22;3579;48.956;9.154;2023-07-29T09:25:36;24.90;56.10
7077;DHT22;3579;48.956;9.154;2023-07-29T09:28:11;24.90;56.10
7077;DHT22;3579;48.956;9.154;2023-07-29T09:30:45;24.90;56.10
7077;DHT22;3579;48.956;9.154;2023-07-29T09:33:12;24.90;56.10
7077;DHT22;3579;48.956;9.154;2023-07-29T09:35:38;24.90;56.00
7077;DHT22;3579;48.956;9.154;2023-07-29T09:38:05;25.00;56.00
7077;DHT22;3579;48.956;9.154;2023-07-29T09:40:39;25.00;56.00
7077;DHT22;3579;48.956;9.154;2023-07-29T09:43:06;25.00;56.10
7077;DHT22;3579;48.956;9.154;2023-07-29T09:45:34;24.90;56.10
7077;DHT22;3579;48.956;9.154;2023-07-29T09:48:01;24.90;56.20
7077;DHT22;3579;48.956;9.154;2023-07-29T09:50:29;24.80;56.70
7077;DHT22;3579;48.956;9.154;2023-07-29T09:52:56;24.80;56.30
7077;DHT22;3579;48.956;9.154;2023-07-29T09:55:25;24.80;56.30
7077;DHT22;3579;48.956;9.154;2023-07-29T09:57:59;24.80;56.40
7077;DHT22;3579;48.956;9.154;2023-07-29T10:00:33;24.70;56.40
7077;DHT22;3579;48.956;9.154;2023-07-29T10:03:00;24.70;56.30
7077;DHT22;3579;48.956;9.154;2023-07-29T10:05:28;24.70;56.30
7077;DHT22;3579;48.956;9.154;2023-07-29T10:07:55;24.80;56.30
7077;DHT22;3579;48.956;9.154;2023-07-29T10:10:21;24.80;56.30
7077;DHT22;3579;48.956;9.154;2023-07-29T10:12:47;24.80;56.20
7077;DHT22;3579;48.956;9.154;2023-07-29T10:15:14;24.90;56.20
7077;DHT22;3579;48.956;9.154;2023-07-29T10:17:40;25.00;56.00
7077;DHT22;3579;48.956;9.154;2023-07-29T10:20:08;25.00;55.80
7077;DHT22;3579;48.956;9.154;2023-07-29T10:22:39;25.10;55.80
7077;DHT22;3579;48.956;9.154;2023-07-29T10:27:48;25.20;55.60
7077;DHT22;3579;48.956;9.154;2023-07-29T10:30:15;25.20;55.60
7077;DHT22;3579;48.956;9.154;2023-07-29T10:32:45;25.10;55.60
7077;DHT22;3579;48.956;9.154;2023-07-29T10:35:14;25.20;55.70
7077;DHT22;3579;48.956;9.154;2023-07-29T10:37:41;25.10;55.60
7077;DHT22;3579;48.956;9.154;2023-07-29T10:40:10;25.20;55.50
7077;DHT22;3579;48.956;9.154;2023-07-29T10:42:37;25.20;55.50
7077;DHT22;3579;48.956;9.154;2023-07-29T10:45:24;25.20;55.50
7077;DHT22;3579;48.956;9.154;2023-07-29T10:47:50;25.20;55.50
7077;DHT22;3579;48.956;9.154;2023-07-29T10:50:21;25.30;56.00
7077;DHT22;3579;48.956;9.154;2023-07-29T10:52:51;25.30;55.50
7077;DHT22;3579;48.956;9.154;2023-07-29T10:55:29;25.30;55.40
7077;DHT22;3579;48.956;9.154;2023-07-29T10:58:12;25.30;55.40
7077;DHT22;3579;48.956;9.154;2023-07-29T11:00:42;25.30;55.40
7077;DHT22;3579;48.956;9.154;2023-07-29T11:03:09;25.30;55.30
7077;DHT22;3579;48.956;9.154;2023-07-29T11:05:48;25.30;55.40
7077;DHT22;3579;48.956;9.154;2023-07-29T11:08:28;25.40;55.40
7077;DHT22;3579;48.956;9.154;2023-07-29T11:11:12;25.50;55.40
7077;DHT22;3579;48.956;9.154;2023-07-29T11:13:38;25.50;55.30
7077;DHT22;3579;48.956;9.154;2023-07-29T11:16:05;25.50;55.20
7077;DHT22;3579;48.956;9.154;2023-07-29T11:18:33;25.50;55.20
7077;DHT22;3579;48.956;9.154;2023-07-29T11:21:00;25.60;55.20
7077;DHT22;3579;48.956;9.154;2023-07-29T11:23:35;25.50;55.20
7077;DHT22;3579;48.956;9.154;2023-07-29T11:26:03;25.60;55.20
7077;DHT22;3579;48.956;9.154;2023-07-29T11:28:30;25.60;55.20
7077;DHT22;3579;48.956;9.154;2023-07-29T11:30:57;25.60;55.20
7077;DHT22;3579;48.956;9.154;2023-07-29T11:33:25;25.60;55.70
7077;DHT22;3579;48.956;9.154;2023-07-29T11:35:52;25.60;55.10
7077;DHT22;3579;48.956;9.154;2023-07-29T11:38:19;25.60;55.20
7077;DHT22;3579;48.956;9.154;2023-07-29T11:41:00;25.60;55.10
7077;DHT22;3579;48.956;9.154;2023-07-29T11:43:26;25.60;55.20
7077;DHT22;3579;48.956;9.154;2023-07-29T11:45:53;25.60;55.20
7077;DHT22;3579;48.956;9.154;2023-07-29T11:48:27;25.60;55.10
7077;DHT22;3579;48.956;9.154;2023-07-29T11:50:54;25.70;55.10
7077;DHT22;3579;48.956;9.154;2023-07-29T11:53:21;25.70;55.10
7077;DHT22;3579;48.956;9.154;2023-07-29T11:55:51;25.70;55.00
7077;DHT22;3579;48.956;9.154;2023-07-29T11:58:18;25.70;55.00
7077;DHT22;3579;48.956;9.154;2023-07-29T12:00:46;25.70;55.00
7077;DHT22;3579;48.956;9.154;2023-07-29T12:03:12;25.70;55.00
7077;DHT22;3579;48.956;9.154;2023-07-29T12:05:39;25.80;55.10
7077;DHT22;3579;48.956;9.154;2023-07-29T12:08:08;25.80;55.10
7077;DHT22;3579;48.956;9.154;2023-07-29T12:10:35;25.80;55.00
7077;DHT22;3579;48.956;9.154;2023-07-29T12:13:02;25.80;55.00
7077;DHT22;3579;48.956;9.154;2023-07-29T12:15:30;25.80;55.00
7077;DHT22;3579;48.956;9.154;2023-07-29T12:17:57;25.80;54.90
7077;DHT22;3579;48.956;9.154;2023-07-29T12:20:24;25.80;54.90
7077;DHT22;3579;48.956;9.154;2023-07-29T12:22:57;25.80;54.90
7077;DHT22;3579;48.956;9.154;2023-07-29T12:25:26;25.80;54.90
7077;DHT22;3579;48.956;9.154;2023-07-29T12:27:52;25.80;55.00
7077;DHT22;3579;48.956;9.154;2023-07-29T12:30:22;25.80;54.90
7077;DHT22;3579;48.956;9.154;2023-07-29T12:32:48;25.90;54.90
7077;DHT22;3579;48.956;9.154;2023-07-29T12:35:14;25.90;54.80
7077;DHT22;3579;48.956;9.154;2023-07-29T12:37:40;25.90;54.80
7077;DHT22;3579;48.956;9.154;2023-07-29T12:40:30;25.90;54.80
7077;DHT22;3579;48.956;9.154;2023-07-29T12:42:56;25.90;54.80
7077;DHT22;3579;48.956;9.154;2023-07-29T12:45:23;25.90;54.80
7077;DHT22;3579;48.956;9.154;2023-07-29T12:47:52;25.90;54.70
7077;DHT22;3579;48.956;9.154;2023-07-29T12:50:18;25.90;54.70
7077;DHT22;3579;48.956;9.154;2023-07-29T12:52:44;25.90;54.70
7077;DHT22;3579;48.956;9.154;2023-07-29T12:55:10;25.90;54.70
7077;DHT22;3579;48.956;9.154;2023-07-29T12:57:43;25.90;54.70
7077;DHT22;3579;48.956;9.154;2023-07-29T13:00:10;25.90;54.80
7077;DHT22;3579;48.956;9.154;2023-07-29T13:02:36;25.90;54.80
7077;DHT22;3579;48.956;9.154;2023-07-29T13:05:02;25.90;54.80
7077;DHT22;3579;48.956;9.154;2023-07-29T13:07:28;25.90;54.70
7077;DHT22;3579;48.956;9.154;2023-07-29T13:09:54;26.00;54.80
7077;DHT22;3579;48.956;9.154;2023-07-29T13:12:20;26.00;54.70
7077;DHT22;3579;48.956;9.154;2023-07-29T13:14:46;26.00;54.70
7077;DHT22;3579;48.956;9.154;2023-07-29T13:17:12;26.00;54.70
7077;DHT22;3579;48.956;9.154;2023-07-29T13:19:38;26.00;54.70
7077;DHT22;3579;48.956;9.154;2023-07-29T13:22:04;26.00;54.80
7077;DHT22;3579;48.956;9.154;2023-07-29T13:24:31;26.00;54.70
7077;DHT22;3579;48.956;9.154;2023-07-29T13:26:58;26.00;54.70
7077;DHT22;3579;48.956;9.154;2023-07-29T13:29:24;26.10;54.70
7077;DHT22;3579;48.956;9.154;2023-07-29T13:31:50;26.10;54.70
7077;DHT22;3579;48.956;9.154;2023-07-29T13:34:16;26.10;54.70
7077;DHT22;3579;48.956;9.154;2023-07-29T13:36:42;26.10;54.70
7077;DHT22;3579;48.956;9.154;2023-07-29T13:39:08;26.10;54.70
7077;DHT22;3579;48.956;9.154;2023-07-29T13:41:34;26.10;54.70
7077;DHT22;3579;48.956;9.154;2023-07-29T13:44:00;26.10;54.60
7077;DHT22;3579;48.956;9.154;2023-07-29T13:46:26;26.10;54.60
7077;DHT22;3579;48.956;9.154;2023-07-29T13:48:52;26.10;54.70
7077;DHT22;3579;48.956;9.154;2023-07-29T13:51:18;26.10;54.70
7077;DHT22;3579;48.956;9.154;2023-07-29T13:53:44;26.10;54.60
7077;DHT22;3579;48.956;9.154;2023-07-29T13:56:10;26.10;54.70
7077;DHT22;3579;48.956;9.154;2023-07-29T13:58:36;26.20;54.70
7077;DHT22;3579;48.956;9.154;2023-07-29T14:01:02;26.20;54.60
7077;DHT22;3579;48.956;9.154;2023-07-29T14:03:29;26.10;54.60
7077;DHT22;3579;48.956;9.154;2023-07-29T14:05:55;26.10;54.60
7077;DHT22;3579;48.956;9.154;2023-07-29T14:08:21;26.20;54.60
7077;DHT22;3579;48.956;9.154;2023-07-29T14:10:49;26.20;54.70
7077;DHT22;3579;48.956;9.154;2023-07-29T14:13:15;26.20;54.60
7077;DHT22;3579;48.956;9.154;2023-07-29T14:15:41;26.20;54.60
7077;DHT22;3579;48.956;9.154;2023-07-29T14:18:07;26.20;54.60
7077;DHT22;3579;48.956;9.154;2023-07-29T14:20:34;26.20;54.70
7077;DHT22;3579;48.956;9.154;2023-07-29T14:23:00;26.10;54.60
7077;DHT22;3579;48.956;9.154;2023-07-29T14:25:27;26.20;54.70
7077;DHT22;3579;48.956;9.154;2023-07-29T14:27:53;26.10;54.70
7077;DHT22;3579;48.956;9.154;2023-07-29T14:30:19;26.10;54.70
7077;DHT22;3579;48.956;9.154;2023-07-29T14:32:45;26.10;54.70
7077;DHT22;3579;48.956;9.154;2023-07-29T14:35:11;26.20;54.70
7077;DHT22;3579;48.956;9.154;2023-07-29T14:37:38;26.20;54.70
7077;DHT22;3579;48.956;9.154;2023-07-29T14:40:05;26.20;54.70
7077;DHT22;3579;48.956;9.154;2023-07-29T14:42:31;26.20;54.70
7077;DHT22;3579;48.956;9.154;2023-07-29T14:44:57;26.20;54.70
7077;DHT22;3579;48.956;9.154;2023-07-29T14:47:23;26.20;54.70
7077;DHT22;3579;48.956;9.154;2023-07-29T14:49:49;26.20;54.60
7077;DHT22;3579;48.956;9.154;2023-07-29T14:52:15;26.20;54.70
7077;DHT22;3579;48.956;9.154;2023-07-29T14:54:41;26.20;54.60
7077;DHT22;3579;48.956;9.154;2023-07-29T14:57:09;26.20;54.70
7077;DHT22;3579;48.956;9.154;2023-07-29T14:59:35;26.20;54.70
7077;DHT22;3579;48.956;9.154;2023-07-29T15:02:01;26.20;54.70
7077;DHT22;3579;48.956;9.154;2023-07-29T15:04:27;26.20;54.70
7077;DHT22;3579;48.956;9.154;2023-07-29T15:06:53;26.20;54.70
7077;DHT22;3579;48.956;9.154;2023-07-29T15:09:19;26.20;54.70
7077;DHT22;3579;48.956;9.154;2023-07-29T15:11:45;26.20;54.70
7077;DHT22;3579;48.956;9.154;2023-07-29T15:14:11;26.20;54.70
7077;DHT22;3579;48.956;9.154;2023-07-29T15:16:37;26.20;54.70
7077;DHT22;3579;48.956;9.154;2023-07-29T15:19:05;26.30;54.70
7077;DHT22;3579;48.956;9.154;2023-07-29T15:21:31;26.30;54.70
7077;DHT22;3579;48.956;9.154;2023-07-29T15:23:59;26.30;54.70
7077;DHT22;3579;48.956;9.154;2023-07-29T15:26:25;26.20;54.70
7077;DHT22;3579;48.956;9.154;2023-07-29T15:28:51;26.20;54.70
7077;DHT22;3579;48.956;9.154;2023-07-29T15:31:17;26.30;54.70
7077;DHT22;3579;48.956;9.154;2023-07-29T15:33:43;26.30;54.70
7077;DHT22;3579;48.956;9.154;2023-07-29T15:36:09;26.30;54.70
7077;DHT22;3579;48.956;9.154;2023-07-29T15:38:35;26.30;54.70
7077;DHT22;3579;48.956;9.154;2023-07-29T15:41:01;26.30;54.70
7077;DHT22;3579;48.956;9.154;2023-07-29T15:43:28;26.30;54.80
7077;DHT22;3579;48.956;9.154;2023-07-29T15:45:54;26.30;54.70
7077;DHT22;3579;48.956;9.154;2023-07-29T15:48:20;26.30;54.80
7077;DHT22;3579;48.956;9.154;2023-07-29T15:50:46;26.30;54.70
7077;DHT22;3579;48.956;9.154;2023-07-29T15:53:12;26.30;54.80
7077;DHT22;3579;48.956;9.154;2023-07-29T15:55:38;26.30;54.80
7077;DHT22;3579;48.956;9.154;2023-07-29T15:58:04;26.30;54.80
7077;DHT22;3579;48.956;9.154;2023-07-29T16:00:30;26.30;54.90
7077;DHT22;3579;48.956;9.154;2023-07-29T16:02:56;26.30;54.90
7077;DHT22;3579;48.956;9.154;2023-07-29T16:05:23;26.30;54.90
7077;DHT22;3579;48.956;9.154;2023-07-29T16:07:49;26.30;54.90
7077;DHT22;3579;48.956;9.154;2023-07-29T16:10:16;26.30;54.90
7077;DHT22;3579;48.956;9.154;2023-07-29T16:12:42;26.30;54.90